sensor_id;sensor_type;location;lat;lon;timestamp;P1;durP1;ratioP1;P2;durP2;ratioP2
21245;SDS011;10781;50.928;4.440;2022-08-07T00:01:42;7.80;;;7.30;;
21245;SDS011;10781;50.928;4.440;2022-08-07T00:04:07;8.10;;;7.50;;
21245;SDS011;10781;50.928;4.440;2022-08-07T00:06:33;8.93;;;8.23;;
21245;SDS011;10781;50.928;4.440;2022-08-07T00:08:58;8.35;;;7.75;;
21245;SDS011;10781;50.928;4.440;2022-08-07T00:11:25;8.40;;;7.90;;
21245;SDS011;10781;50.928;4.440;2022-08-07T00:13:51;7.70;;;7.03;;
21245;SDS011;10781;50.928;4.440;2022-08-07T00:16:16;8.07;;;7.38;;
21245;SDS011;10781;50.928;4.440;2022-08-07T00:18:42;7.72;;;7.22;;
21245;SDS011;10781;50.928;4.440;2022-08-07T00:21:08;8.38;;;7.85;;
21245;SDS011;10781;50.928;4.440;2022-08-07T00:23:35;8.57;;;8.00;;
21245;SDS011;10781;50.928;4.440;2022-08-07T00:26:03;8.60;;;7.97;;
21245;SDS011;10781;50.928;4.440;2022-08-07T00:28:30;9.15;;;8.45;;
21245;SDS011;10781;50.928;4.440;2022-08-07T00:30:56;8.63;;;7.93;;
21245;SDS011;10781;50.928;4.440;2022-08-07T00:33:22;8.40;;;7.80;;
21245;SDS011;10781;50.928;4.440;2022-08-07T00:35:53;8.02;;;7.43;;
21245;SDS011;10781;50.928;4.440;2022-08-07T00:38:19;8.38;;;7.78;;
21245;SDS011;10781;50.928;4.440;2022-08-07T00:40:45;8.77;;;8.13;;
21245;SDS011;10781;50.928;4.440;2022-08-07T00:43:11;8.30;;;7.80;;
21245;SDS011;10781;50.928;4.440;2022-08-07T00:45:38;8.73;;;8.05;;
21245;SDS011;10781;50.928;4.440;2022-08-07T00:48:04;8.88;;;8.25;;
21245;SDS011;10781;50.928;4.440;2022-08-07T00:50:30;8.80;;;8.20;;
21245;SDS011;10781;50.928;4.440;2022-08-07T00:52:56;9.45;;;8.73;;
21245;SDS011;10781;50.928;4.440;2022-08-07T00:55:22;8.77;;;8.00;;
21245;SDS011;10781;50.928;4.440;2022-08-07T00:57:48;8.80;;;8.13;;
21245;SDS011;10781;50.928;4.440;2022-08-07T01:00:15;9.32;;;8.73;;
21245;SDS011;10781;50.928;4.440;2022-08-07T01:02:42;9.07;;;8.38;;
21245;SDS011;10781;50.928;4.440;2022-08-07T01:05:09;8.93;;;8.25;;
21245;SDS011;10781;50.928;4.440;2022-08-07T01:07:36;9.07;;;8.43;;
21245;SDS011;10781;50.928;4.440;2022-08-07T01:10:02;9.73;;;9.13;;
21245;SDS011;10781;50.928;4.440;2022-08-07T01:12:28;9.25;;;8.65;;
21245;SDS011;10781;50.928;4.440;2022-08-07T01:14:54;8.77;;;8.18;;
21245;SDS011;10781;50.928;4.440;2022-08-07T01:17:24;9.23;;;8.63;;
21245;SDS011;10781;50.928;4.440;2022-08-07T01:19:51;9.40;;;8.68;;
21245;SDS011;10781;50.928;4.440;2022-08-07T01:22:19;9.10;;;8.30;;
21245;SDS011;10781;50.928;4.440;2022-08-07T01:24:46;10.07;;;9.30;;
21245;SDS011;10781;50.928;4.440;2022-08-07T01:27:12;9.50;;;8.90;;
21245;SDS011;10781;50.928;4.440;2022-08-07T01:29:37;9.52;;;8.80;;
21245;SDS011;10781;50.928;4.440;2022-08-07T01:32:03;10.48;;;9.77;;
21245;SDS011;10781;50.928;4.440;2022-08-07T01:34:30;8.88;;;8.25;;
21245;SDS011;10781;50.928;4.440;2022-08-07T01:36:56;10.15;;;9.35;;
21245;SDS011;10781;50.928;4.440;2022-08-07T01:39:22;10.38;;;9.50;;
21245;SDS011;10781;50.928;4.440;2022-08-07T01:41:49;9.85;;;9.25;;
21245;SDS011;10781;50.928;4.440;2022-08-07T01:44:15;10.65;;;9.85;;
21245;SDS011;10781;50.928;4.440;2022-08-07T01:46:41;10.55;;;9.73;;
21245;SDS011;10781;50.928;4.440;2022-08-07T01:49:07;10.15;;;9.38;;
21245;SDS011;10781;50.928;4.440;2022-08-07T01:51:35;9.25;;;8.65;;
21245;SDS011;10781;50.928;4.440;2022-08-07T01:54:03;9.82;;;9.13;;
21245;SDS011;10781;50.928;4.440;2022-08-07T01:56:45;9.85;;;8.95;;
21245;SDS011;10781;50.928;4.440;2022-08-07T01:59:22;9.82;;;9.13;;
21245;SDS011;10781;50.928;4.440;2022-08-07T02:01:56;10.82;;;9.93;;
21245;SDS011;10781;50.928;4.440;2022-08-07T02:04:40;9.63;;;8.82;;
21245;SDS011;10781;50.928;4.440;2022-08-07T02:07:11;9.73;;;9.05;;
21245;SDS011;10781;50.928;4.440;2022-08-07T02:09:40;9.23;;;8.52;;
21245;SDS011;10781;50.928;4.440;2022-08-07T02:12:09;10.05;;;9.32;;
21245;SDS011;10781;50.928;4.440;2022-08-07T02:14:44;10.38;;;9.48;;
21245;SDS011;10781;50.928;4.440;2022-08-07T02:17:14;10.20;;;9.30;;
21245;SDS011;10781;50.928;4.440;2022-08-07T02:19:41;9.75;;;8.95;;
21245;SDS011;10781;50.928;4.440;2022-08-07T02:22:09;9.48;;;8.70;;
21245;SDS011;10781;50.928;4.440;2022-08-07T02:24:39;9.90;;;9.18;;
21245;SDS011;10781;50.928;4.440;2022-08-07T02:27:07;9.45;;;8.65;;
21245;SDS011;10781;50.928;4.440;2022-08-07T02:29:33;9.23;;;8.32;;
21245;SDS011;10781;50.928;4.440;2022-08-07T02:32:00;9.68;;;8.98;;
21245;SDS011;10781;50.928;4.440;2022-08-07T02:34:27;10.32;;;9.63;;
21245;SDS011;10781;50.928;4.440;2022-08-07T02:36:54;10.00;;;9.30;;
21245;SDS011;10781;50.928;4.440;2022-08-07T02:39:21;9.52;;;8.93;;
21245;SDS011;10781;50.928;4.440;2022-08-07T02:41:48;9.57;;;8.75;;
21245;SDS011;10781;50.928;4.440;2022-08-07T02:44:15;9.40;;;8.70;;
21245;SDS011;10781;50.928;4.440;2022-08-07T02:46:41;9.52;;;8.82;;
21245;SDS011;10781;50.928;4.440;2022-08-07T02:49:09;9.85;;;9.00;;
21245;SDS011;10781;50.928;4.440;2022-08-07T02:51:34;10.40;;;9.57;;
21245;SDS011;10781;50.928;4.440;2022-08-07T02:54:01;9.60;;;8.80;;
21245;SDS011;10781;50.928;4.440;2022-08-07T02:56:29;9.32;;;8.73;;
21245;SDS011;10781;50.928;4.440;2022-08-07T02:58:57;9.82;;;8.85;;
21245;SDS011;10781;50.928;4.440;2022-08-07T03:01:26;10.05;;;9.10;;
21245;SDS011;10781;50.928;4.440;2022-08-07T03:03:52;10.35;;;9.55;;
21245;SDS011;10781;50.928;4.440;2022-08-07T03:06:20;9.70;;;8.90;;
21245;SDS011;10781;50.928;4.440;2022-08-07T03:08:48;10.48;;;9.68;;
21245;SDS011;10781;50.928;4.440;2022-08-07T03:11:15;10.40;;;9.48;;
21245;SDS011;10781;50.928;4.440;2022-08-07T03:13:41;10.57;;;9.68;;
21245;SDS011;10781;50.928;4.440;2022-08-07T03:16:07;10.30;;;9.60;;
21245;SDS011;10781;50.928;4.440;2022-08-07T03:18:33;9.82;;;9.02;;
21245;SDS011;10781;50.928;4.440;2022-08-07T03:20:59;10.18;;;9.48;;
21245;SDS011;10781;50.928;4.440;2022-08-07T03:23:26;10.98;;;10.15;;
21245;SDS011;10781;50.928;4.440;2022-08-07T03:25:53;11.23;;;10.43;;
21245;SDS011;10781;50.928;4.440;2022-08-07T03:28:21;10.23;;;9.50;;
21245;SDS011;10781;50.928;4.440;2022-08-07T03:30:48;10.68;;;9.90;;
21245;SDS011;10781;50.928;4.440;2022-08-07T03:33:36;11.68;;;10.73;;
21245;SDS011;10781;50.928;4.440;2022-08-07T03:36:02;11.00;;;10.02;;
21245;SDS011;10781;50.928;4.440;2022-08-07T03:38:28;11.68;;;10.60;;
21245;SDS011;10781;50.928;4.440;2022-08-07T03:40:54;11.32;;;10.35;;
21245;SDS011;10781;50.928;4.440;2022-08-07T03:43:21;11.70;;;10.77;;
21245;SDS011;10781;50.928;4.440;2022-08-07T03:45:46;10.45;;;9.45;;
21245;SDS011;10781;50.928;4.440;2022-08-07T03:48:12;10.82;;;10.02;;
21245;SDS011;10781;50.928;4.440;2022-08-07T03:50:38;11.70;;;10.80;;
21245;SDS011;10781;50.928;4.440;2022-08-07T03:53:05;11.55;;;10.65;;
21245;SDS011;10781;50.928;4.440;2022-08-07T03:55:31;12.18;;;11.18;;
21245;SDS011;10781;50.928;4.440;2022-08-07T03:57:57;12.07;;;11.07;;
21245;SDS011;10781;50.928;4.440;2022-08-07T04:00:23;12.13;;;11.20;;
21245;SDS011;10781;50.928;4.440;2022-08-07T04:02:50;12.32;;;11.32;;
21245;SDS011;10781;50.928;4.440;2022-08-07T04:05:18;11.75;;;10.85;;
21245;SDS011;10781;50.928;4.440;2022-08-07T04:07:45;11.73;;;10.82;;
21245;SDS011;10781;50.928;4.440;2022-08-07T04:10:11;11.38;;;10.38;;
21245;SDS011;10781;50.928;4.440;2022-08-07T04:12:37;12.10;;;11.20;;
21245;SDS011;10781;50.928;4.440;2022-08-07T04:15:03;12.00;;;10.98;;
21245;SDS011;10781;50.928;4.440;2022-08-07T04:17:30;11.38;;;10.57;;
21245;SDS011;10781;50.928;4.440;2022-08-07T04:19:56;12.00;;;10.85;;
21245;SDS011;10781;50.928;4.440;2022-08-07T04:22:22;12.23;;;11.23;;
21245;SDS011;10781;50.928;4.440;2022-08-07T04:24:49;12.48;;;11.38;;
21245;SDS011;10781;50.928;4.440;2022-08-07T04:27:15;12.02;;;11.13;;
21245;SDS011;10781;50.928;4.440;2022-08-07T04:29:42;13.20;;;11.90;;
21245;SDS011;10781;50.928;4.440;2022-08-07T04:32:08;13.00;;;12.00;;
21245;SDS011;10781;50.928;4.440;2022-08-07T04:34:34;13.32;;;11.93;;
21245;SDS011;10781;50.928;4.440;2022-08-07T04:37:01;13.90;;;12.57;;
21245;SDS011;10781;50.928;4.440;2022-08-07T04:39:27;13.02;;;11.82;;
21245;SDS011;10781;50.928;4.440;2022-08-07T04:41:53;13.95;;;12.85;;
21245;SDS011;10781;50.928;4.440;2022-08-07T04:44:18;13.05;;;12.05;;
21245;SDS011;10781;50.928;4.440;2022-08-07T04:46:56;12.88;;;11.77;;
21245;SDS011;10781;50.928;4.440;2022-08-07T04:49:52;13.07;;;11.98;;
21245;SDS011;10781;50.928;4.440;2022-08-07T04:52:31;12.38;;;11.18;;
21245;SDS011;10781;50.928;4.440;2022-08-07T04:55:17;12.63;;;11.45;;
21245;SDS011;10781;50.928;4.440;2022-08-07T04:58:02;13.20;;;12.10;;
21245;SDS011;10781;50.928;4.440;2022-08-07T05:00:56;13.10;;;12.00;;
21245;SDS011;10781;50.928;4.440;2022-08-07T05:03:26;13.07;;;12.02;;
21245;SDS011;10781;50.928;4.440;2022-08-07T05:06:06;14.18;;;13.00;;
21245;SDS011;10781;50.928;4.440;2022-08-07T05:08:49;15.20;;;14.00;;
21245;SDS011;10781;50.928;4.440;2022-08-07T05:11:51;15.70;;;14.10;;
21245;SDS011;10781;50.928;4.440;2022-08-07T05:14:18;17.50;;;15.77;;
21245;SDS011;10781;50.928;4.440;2022-08-07T05:17:05;17.70;;;15.93;;
21245;SDS011;10781;50.928;4.440;2022-08-07T05:19:34;16.35;;;14.68;;
21245;SDS011;10781;50.928;4.440;2022-08-07T05:22:04;17.15;;;15.57;;
21245;SDS011;10781;50.928;4.440;2022-08-07T05:24:32;16.45;;;14.90;;
21245;SDS011;10781;50.928;4.440;2022-08-07T05:27:00;16.67;;;15.18;;
21245;SDS011;10781;50.928;4.440;2022-08-07T05:29:26;15.48;;;13.95;;
21245;SDS011;10781;50.928;4.440;2022-08-07T05:31:53;14.57;;;13.15;;
21245;SDS011;10781;50.928;4.440;2022-08-07T05:34:20;14.45;;;13.20;;
21245;SDS011;10781;50.928;4.440;2022-08-07T05:36:49;13.95;;;12.10;;
21245;SDS011;10781;50.928;4.440;2022-08-07T05:39:17;13.65;;;12.43;;
21245;SDS011;10781;50.928;4.440;2022-08-07T05:41:44;12.68;;;11.65;;
21245;SDS011;10781;50.928;4.440;2022-08-07T05:44:12;14.02;;;12.80;;
21245;SDS011;10781;50.928;4.440;2022-08-07T05:46:39;13.60;;;12.50;;
21245;SDS011;10781;50.928;4.440;2022-08-07T05:49:06;13.00;;;11.90;;
21245;SDS011;10781;50.928;4.440;2022-08-07T05:51:33;13.95;;;12.52;;
21245;SDS011;10781;50.928;4.440;2022-08-07T05:53:59;13.20;;;12.20;;
21245;SDS011;10781;50.928;4.440;2022-08-07T05:56:25;13.77;;;12.48;;
21245;SDS011;10781;50.928;4.440;2022-08-07T05:58:53;13.85;;;12.65;;
21245;SDS011;10781;50.928;4.440;2022-08-07T06:01:19;14.20;;;13.00;;
21245;SDS011;10781;50.928;4.440;2022-08-07T06:03:47;13.00;;;11.90;;
21245;SDS011;10781;50.928;4.440;2022-08-07T06:06:16;12.45;;;11.32;;
21245;SDS011;10781;50.928;4.440;2022-08-07T06:08:44;12.30;;;11.40;;
21245;SDS011;10781;50.928;4.440;2022-08-07T06:11:10;13.15;;;12.07;;
21245;SDS011;10781;50.928;4.440;2022-08-07T06:13:36;13.25;;;12.20;;
21245;SDS011;10781;50.928;4.440;2022-08-07T06:16:02;12.82;;;11.73;;
21245;SDS011;10781;50.928;4.440;2022-08-07T06:18:30;12.10;;;11.20;;
21245;SDS011;10781;50.928;4.440;2022-08-07T06:20:58;12.32;;;11.43;;
21245;SDS011;10781;50.928;4.440;2022-08-07T06:23:25;12.10;;;11.00;;
21245;SDS011;10781;50.928;4.440;2022-08-07T06:25:51;12.48;;;11.45;;
21245;SDS011;10781;50.928;4.440;2022-08-07T06:28:17;11.98;;;11.20;;
21245;SDS011;10781;50.928;4.440;2022-08-07T06:30:43;12.85;;;11.70;;
21245;SDS011;10781;50.928;4.440;2022-08-07T06:33:08;12.27;;;11.20;;
21245;SDS011;10781;50.928;4.440;2022-08-07T06:35:34;11.70;;;10.50;;
21245;SDS011;10781;50.928;4.440;2022-08-07T06:38:00;10.75;;;9.95;;
21245;SDS011;10781;50.928;4.440;2022-08-07T06:40:32;10.80;;;9.98;;
21245;SDS011;10781;50.928;4.440;2022-08-07T06:43:03;10.32;;;9.63;;
21245;SDS011;10781;50.928;4.440;2022-08-07T06:45:33;9.57;;;8.80;;
21245;SDS011;10781;50.928;4.440;2022-08-07T06:47:59;9.27;;;8.57;;
21245;SDS011;10781;50.928;4.440;2022-08-07T06:50:25;9.73;;;9.02;;
21245;SDS011;10781;50.928;4.440;2022-08-07T06:52:52;9.85;;;8.95;;
21245;SDS011;10781;50.928;4.440;2022-08-07T06:55:23;9.32;;;8.65;;
21245;SDS011;10781;50.928;4.440;2022-08-07T06:57:52;9.10;;;8.40;;
21245;SDS011;10781;50.928;4.440;2022-08-07T07:00:21;9.77;;;8.95;;
21245;SDS011;10781;50.928;4.440;2022-08-07T07:02:47;8.77;;;8.10;;
21245;SDS011;10781;50.928;4.440;2022-08-07T07:05:13;9.10;;;8.30;;
21245;SDS011;10781;50.928;4.440;2022-08-07T07:07:39;8.77;;;8.18;;
21245;SDS011;10781;50.928;4.440;2022-08-07T07:10:09;8.23;;;7.72;;
21245;SDS011;10781;50.928;4.440;2022-08-07T07:12:53;8.85;;;8.18;;
21245;SDS011;10781;50.928;4.440;2022-08-07T07:15:25;8.40;;;7.80;;
21245;SDS011;10781;50.928;4.440;2022-08-07T07:17:57;8.40;;;7.80;;
21245;SDS011;10781;50.928;4.440;2022-08-07T07:20:38;8.50;;;7.80;;
21245;SDS011;10781;50.928;4.440;2022-08-07T07:23:25;8.55;;;7.90;;
21245;SDS011;10781;50.928;4.440;2022-08-07T07:25:54;8.30;;;7.60;;
21245;SDS011;10781;50.928;4.440;2022-08-07T07:28:26;8.35;;;7.75;;
21245;SDS011;10781;50.928;4.440;2022-08-07T07:31:00;8.13;;;7.53;;
21245;SDS011;10781;50.928;4.440;2022-08-07T07:33:29;7.65;;;7.05;;
21245;SDS011;10781;50.928;4.440;2022-08-07T07:35:57;7.85;;;7.32;;
21245;SDS011;10781;50.928;4.440;2022-08-07T07:38:25;7.88;;;7.38;;
21245;SDS011;10781;50.928;4.440;2022-08-07T07:40:53;14.77;;;13.68;;
21245;SDS011;10781;50.928;4.440;2022-08-07T07:43:22;9.63;;;8.73;;
21245;SDS011;10781;50.928;4.440;2022-08-07T07:45:51;9.10;;;8.50;;
21245;SDS011;10781;50.928;4.440;2022-08-07T07:48:21;23.67;;;21.65;;
21245;SDS011;10781;50.928;4.440;2022-08-07T07:50:49;9.02;;;8.25;;
21245;SDS011;10781;50.928;4.440;2022-08-07T07:53:18;8.15;;;7.65;;
21245;SDS011;10781;50.928;4.440;2022-08-07T07:55:46;8.43;;;7.72;;
21245;SDS011;10781;50.928;4.440;2022-08-07T07:58:12;8.15;;;7.45;;
21245;SDS011;10781;50.928;4.440;2022-08-07T08:00:39;8.32;;;7.82;;
21245;SDS011;10781;50.928;4.440;2022-08-07T08:03:07;7.45;;;6.75;;
21245;SDS011;10781;50.928;4.440;2022-08-07T08:05:37;7.60;;;7.00;;
21245;SDS011;10781;50.928;4.440;2022-08-07T08:08:04;25.80;;;23.35;;
21245;SDS011;10781;50.928;4.440;2022-08-07T08:10:31;20.55;;;18.63;;
21245;SDS011;10781;50.928;4.440;2022-08-07T08:12:58;7.35;;;6.88;;
21245;SDS011;10781;50.928;4.440;2022-08-07T08:15:25;7.63;;;6.90;;
21245;SDS011;10781;50.928;4.440;2022-08-07T08:17:53;7.68;;;7.18;;
21245;SDS011;10781;50.928;4.440;2022-08-07T08:20:21;7.38;;;6.78;;
21245;SDS011;10781;50.928;4.440;2022-08-07T08:22:48;7.40;;;6.90;;
21245;SDS011;10781;50.928;4.440;2022-08-07T08:25:34;7.78;;;7.10;;
21245;SDS011;10781;50.928;4.440;2022-08-07T08:28:24;7.20;;;6.70;;
21245;SDS011;10781;50.928;4.440;2022-08-07T08:30:53;7.03;;;6.63;;
21245;SDS011;10781;50.928;4.440;2022-08-07T08:33:32;7.82;;;7.13;;
21245;SDS011;10781;50.928;4.440;2022-08-07T08:35:58;7.38;;;6.85;;
21245;SDS011;10781;50.928;4.440;2022-08-07T08:38:26;7.05;;;6.55;;
21245;SDS011;10781;50.928;4.440;2022-08-07T08:41:06;6.45;;;5.97;;
21245;SDS011;10781;50.928;4.440;2022-08-07T08:44:03;7.90;;;7.40;;
21245;SDS011;10781;50.928;4.440;2022-08-07T08:46:45;6.68;;;6.28;;
21245;SDS011;10781;50.928;4.440;2022-08-07T08:49:26;7.40;;;6.80;;
21245;SDS011;10781;50.928;4.440;2022-08-07T08:55:19;7.57;;;7.07;;
21245;SDS011;10781;50.928;4.440;2022-08-07T08:57:57;6.90;;;6.47;;
21245;SDS011;10781;50.928;4.440;2022-08-07T09:00:46;7.50;;;6.88;;
21245;SDS011;10781;50.928;4.440;2022-08-07T09:06:08;6.90;;;6.50;;
21245;SDS011;10781;50.928;4.440;2022-08-07T09:14:14;6.68;;;6.13;;
21245;SDS011;10781;50.928;4.440;2022-08-07T09:17:01;7.03;;;6.25;;
21245;SDS011;10781;50.928;4.440;2022-08-07T09:20:03;6.68;;;6.18;;
21245;SDS011;10781;50.928;4.440;2022-08-07T09:25:09;6.95;;;6.45;;
21245;SDS011;10781;50.928;4.440;2022-08-07T09:30:05;6.18;;;5.68;;
21245;SDS011;10781;50.928;4.440;2022-08-07T09:32:41;6.45;;;6.05;;
21245;SDS011;10781;50.928;4.440;2022-08-07T09:35:19;6.95;;;6.35;;
21245;SDS011;10781;50.928;4.440;2022-08-07T09:38:18;5.75;;;5.25;;
21245;SDS011;10781;50.928;4.440;2022-08-07T09:55:08;5.75;;;5.43;;
21245;SDS011;10781;50.928;4.440;2022-08-07T10:00:28;5.53;;;5.15;;
21245;SDS011;10781;50.928;4.440;2022-08-07T10:17:02;6.40;;;5.40;;
21245;SDS011;10781;50.928;4.440;2022-08-07T10:20:18;5.80;;;5.13;;
21245;SDS011;10781;50.928;4.440;2022-08-07T10:26:20;5.43;;;5.03;;
21245;SDS011;10781;50.928;4.440;2022-08-07T10:28:38;5.43;;;5.00;;
21245;SDS011;10781;50.928;4.440;2022-08-07T10:42:27;4.80;;;4.50;;
21245;SDS011;10781;50.928;4.440;2022-08-07T10:56:39;5.20;;;4.70;;
21245;SDS011;10781;50.928;4.440;2022-08-07T11:00:03;4.65;;;4.35;;
21245;SDS011;10781;50.928;4.440;2022-08-07T11:02:26;7.85;;;5.93;;
21245;SDS011;10781;50.928;4.440;2022-08-07T11:05:21;6.15;;;5.45;;
21245;SDS011;10781;50.928;4.440;2022-08-07T11:08:14;4.95;;;4.55;;
21245;SDS011;10781;50.928;4.440;2022-08-07T11:10:45;4.60;;;4.30;;
21245;SDS011;10781;50.928;4.440;2022-08-07T11:16:10;4.80;;;4.40;;
21245;SDS011;10781;50.928;4.440;2022-08-07T11:18:47;5.25;;;4.60;;
21245;SDS011;10781;50.928;4.440;2022-08-07T11:21:38;4.70;;;4.43;;
21245;SDS011;10781;50.928;4.440;2022-08-07T11:27:01;4.93;;;4.53;;
21245;SDS011;10781;50.928;4.440;2022-08-07T11:29:44;4.47;;;4.22;;
21245;SDS011;10781;50.928;4.440;2022-08-07T11:32:38;4.43;;;4.22;;
21245;SDS011;10781;50.928;4.440;2022-08-07T11:35:10;5.05;;;4.65;;
21245;SDS011;10781;50.928;4.440;2022-08-07T11:37:54;4.47;;;4.18;;
21245;SDS011;10781;50.928;4.440;2022-08-07T11:40:56;4.68;;;4.20;;
21245;SDS011;10781;50.928;4.440;2022-08-07T11:43:41;5.05;;;4.68;;
21245;SDS011;10781;50.928;4.440;2022-08-07T11:49:39;5.53;;;4.50;;
21245;SDS011;10781;50.928;4.440;2022-08-07T12:03:56;5.20;;;4.70;;
21245;SDS011;10781;50.928;4.440;2022-08-07T12:06:47;4.75;;;4.45;;
21245;SDS011;10781;50.928;4.440;2022-08-07T12:09:36;4.90;;;4.50;;
21245;SDS011;10781;50.928;4.440;2022-08-07T12:15:22;4.78;;;4.10;;
21245;SDS011;10781;50.928;4.440;2022-08-07T12:17:52;4.93;;;4.63;;
21245;SDS011;10781;50.928;4.440;2022-08-07T12:20:33;4.72;;;4.38;;
21245;SDS011;10781;50.928;4.440;2022-08-07T12:29:05;4.60;;;4.20;;
21245;SDS011;10781;50.928;4.440;2022-08-07T12:31:13;4.60;;;4.20;;
21245;SDS011;10781;50.928;4.440;2022-08-07T12:33:48;4.97;;;4.57;;
21245;SDS011;10781;50.928;4.440;2022-08-07T12:36:15;4.35;;;4.05;;
21245;SDS011;10781;50.928;4.440;2022-08-07T12:38:42;4.20;;;3.90;;
21245;SDS011;10781;50.928;4.440;2022-08-07T12:41:12;4.47;;;4.20;;
21245;SDS011;10781;50.928;4.440;2022-08-07T12:43:40;4.47;;;4.18;;
21245;SDS011;10781;50.928;4.440;2022-08-07T12:48:57;4.10;;;3.78;;
21245;SDS011;10781;50.928;4.440;2022-08-07T12:51:48;4.20;;;3.90;;
21245;SDS011;10781;50.928;4.440;2022-08-07T12:54:25;4.15;;;3.90;;
21245;SDS011;10781;50.928;4.440;2022-08-07T12:57:07;4.18;;;3.97;;
21245;SDS011;10781;50.928;4.440;2022-08-07T12:59:36;4.43;;;4.13;;
21245;SDS011;10781;50.928;4.440;2022-08-07T13:04:58;4.60;;;4.30;;
21245;SDS011;10781;50.928;4.440;2022-08-07T13:07:44;4.68;;;4.20;;
21245;SDS011;10781;50.928;4.440;2022-08-07T13:10:21;4.60;;;4.20;;
21245;SDS011;10781;50.928;4.440;2022-08-07T13:13:26;4.50;;;4.20;;
21245;SDS011;10781;50.928;4.440;2022-08-07T13:21:45;4.90;;;4.50;;
21245;SDS011;10781;50.928;4.440;2022-08-07T13:29:40;4.30;;;4.00;;
21245;SDS011;10781;50.928;4.440;2022-08-07T13:32:19;4.20;;;4.00;;
21245;SDS011;10781;50.928;4.440;2022-08-07T13:34:59;4.57;;;4.38;;
21245;SDS011;10781;50.928;4.440;2022-08-07T13:38:15;4.35;;;4.10;;
21245;SDS011;10781;50.928;4.440;2022-08-07T13:40:56;4.30;;;4.00;;
21245;SDS011;10781;50.928;4.440;2022-08-07T13:43:22;4.45;;;4.25;;
21245;SDS011;10781;50.928;4.440;2022-08-07T13:45:53;4.20;;;4.00;;
21245;SDS011;10781;50.928;4.440;2022-08-07T13:48:21;4.13;;;3.80;;
21245;SDS011;10781;50.928;4.440;2022-08-07T13:50:48;4.20;;;3.90;;
21245;SDS011;10781;50.928;4.440;2022-08-07T13:53:20;4.30;;;3.92;;
21245;SDS011;10781;50.928;4.440;2022-08-07T13:55:48;4.28;;;3.97;;
21245;SDS011;10781;50.928;4.440;2022-08-07T13:58:15;4.38;;;4.07;;
21245;SDS011;10781;50.928;4.440;2022-08-07T14:01:07;4.20;;;3.90;;
21245;SDS011;10781;50.928;4.440;2022-08-07T14:03:36;4.15;;;3.90;;
21245;SDS011;10781;50.928;4.440;2022-08-07T14:06:04;4.07;;;3.78;;
21245;SDS011;10781;50.928;4.440;2022-08-07T14:08:32;4.65;;;4.30;;
21245;SDS011;10781;50.928;4.440;2022-08-07T14:11:03;4.15;;;3.90;;
21245;SDS011;10781;50.928;4.440;2022-08-07T14:13:30;4.15;;;3.90;;
21245;SDS011;10781;50.928;4.440;2022-08-07T14:15:59;6.93;;;6.50;;
21245;SDS011;10781;50.928;4.440;2022-08-07T14:23:47;5.18;;;4.25;;
21245;SDS011;10781;50.928;4.440;2022-08-07T14:26:25;4.85;;;4.38;;
21245;SDS011;10781;50.928;4.440;2022-08-07T14:28:57;4.15;;;3.95;;
21245;SDS011;10781;50.928;4.440;2022-08-07T14:31:26;4.47;;;4.28;;
21245;SDS011;10781;50.928;4.440;2022-08-07T14:33:53;4.78;;;4.38;;
21245;SDS011;10781;50.928;4.440;2022-08-07T14:36:20;4.95;;;4.65;;
21245;SDS011;10781;50.928;4.440;2022-08-07T14:38:48;5.00;;;4.30;;
21245;SDS011;10781;50.928;4.440;2022-08-07T14:41:17;4.50;;;4.10;;
21245;SDS011;10781;50.928;4.440;2022-08-07T14:43:51;4.47;;;4.10;;
21245;SDS011;10781;50.928;4.440;2022-08-07T14:46:19;4.57;;;4.28;;
21245;SDS011;10781;50.928;4.440;2022-08-07T14:48:46;5.00;;;4.70;;
21245;SDS011;10781;50.928;4.440;2022-08-07T14:51:18;4.82;;;4.22;;
21245;SDS011;10781;50.928;4.440;2022-08-07T14:53:48;4.70;;;4.30;;
21245;SDS011;10781;50.928;4.440;2022-08-07T14:56:17;5.70;;;4.75;;
21245;SDS011;10781;50.928;4.440;2022-08-07T14:58:47;4.80;;;4.50;;
21245;SDS011;10781;50.928;4.440;2022-08-07T15:01:16;4.88;;;4.55;;
21245;SDS011;10781;50.928;4.440;2022-08-07T15:03:43;5.07;;;4.68;;
21245;SDS011;10781;50.928;4.440;2022-08-07T15:06:11;6.85;;;5.15;;
21245;SDS011;10781;50.928;4.440;2022-08-07T15:08:40;5.13;;;4.82;;
21245;SDS011;10781;50.928;4.440;2022-08-07T15:11:11;4.90;;;4.60;;
21245;SDS011;10781;50.928;4.440;2022-08-07T15:13:44;5.20;;;4.80;;
21245;SDS011;10781;50.928;4.440;2022-08-07T15:16:14;5.18;;;4.78;;
21245;SDS011;10781;50.928;4.440;2022-08-07T15:18:45;5.18;;;4.80;;
21245;SDS011;10781;50.928;4.440;2022-08-07T15:21:18;5.55;;;5.15;;
21245;SDS011;10781;50.928;4.440;2022-08-07T15:23:49;4.80;;;4.50;;
21245;SDS011;10781;50.928;4.440;2022-08-07T15:26:20;5.70;;;4.90;;
21245;SDS011;10781;50.928;4.440;2022-08-07T15:28:56;4.80;;;4.50;;
21245;SDS011;10781;50.928;4.440;2022-08-07T15:31:23;5.15;;;4.75;;
21245;SDS011;10781;50.928;4.440;2022-08-07T15:33:55;5.32;;;5.00;;
21245;SDS011;10781;50.928;4.440;2022-08-07T15:36:23;7.18;;;6.65;;
21245;SDS011;10781;50.928;4.440;2022-08-07T15:38:50;5.97;;;5.55;;
21245;SDS011;10781;50.928;4.440;2022-08-07T15:41:20;5.97;;;5.50;;
21245;SDS011;10781;50.928;4.440;2022-08-07T15:44:08;6.22;;;5.72;;
21245;SDS011;10781;50.928;4.440;2022-08-07T15:46:37;5.35;;;5.05;;
21245;SDS011;10781;50.928;4.440;2022-08-07T15:49:09;4.97;;;4.68;;
21245;SDS011;10781;50.928;4.440;2022-08-07T15:51:39;5.78;;;5.38;;
21245;SDS011;10781;50.928;4.440;2022-08-07T15:54:06;5.10;;;4.80;;
21245;SDS011;10781;50.928;4.440;2022-08-07T15:56:35;5.38;;;5.00;;
21245;SDS011;10781;50.928;4.440;2022-08-07T15:59:03;5.20;;;4.90;;
21245;SDS011;10781;50.928;4.440;2022-08-07T16:01:34;5.35;;;5.00;;
21245;SDS011;10781;50.928;4.440;2022-08-07T16:04:12;5.60;;;5.20;;
21245;SDS011;10781;50.928;4.440;2022-08-07T16:06:43;5.78;;;5.38;;
21245;SDS011;10781;50.928;4.440;2022-08-07T16:14:36;5.88;;;5.55;;
21245;SDS011;10781;50.928;4.440;2022-08-07T16:17:26;5.50;;;5.10;;
21245;SDS011;10781;50.928;4.440;2022-08-07T16:28:45;6.40;;;5.93;;
21245;SDS011;10781;50.928;4.440;2022-08-07T16:34:06;5.43;;;5.03;;
21245;SDS011;10781;50.928;4.440;2022-08-07T16:36:43;6.45;;;5.90;;
21245;SDS011;10781;50.928;4.440;2022-08-07T16:39:31;6.22;;;5.78;;
21245;SDS011;10781;50.928;4.440;2022-08-07T16:42:14;5.88;;;5.47;;
21245;SDS011;10781;50.928;4.440;2022-08-07T16:51:02;6.90;;;6.28;;
21245;SDS011;10781;50.928;4.440;2022-08-07T16:54:07;7.53;;;6.72;;
21245;SDS011;10781;50.928;4.440;2022-08-07T16:57:06;6.50;;;5.97;;
21245;SDS011;10781;50.928;4.440;2022-08-07T16:59:38;6.95;;;6.32;;
21245;SDS011;10781;50.928;4.440;2022-08-07T17:02:20;6.75;;;6.13;;
21245;SDS011;10781;50.928;4.440;2022-08-07T17:07:45;7.05;;;6.10;;
21245;SDS011;10781;50.928;4.440;2022-08-07T17:10:23;6.35;;;5.80;;
21245;SDS011;10781;50.928;4.440;2022-08-07T17:16:28;6.72;;;6.22;;
21245;SDS011;10781;50.928;4.440;2022-08-07T17:19:13;6.72;;;6.15;;
21245;SDS011;10781;50.928;4.440;2022-08-07T17:21:47;6.70;;;6.20;;
21245;SDS011;10781;50.928;4.440;2022-08-07T17:30:28;6.30;;;5.80;;
21245;SDS011;10781;50.928;4.440;2022-08-07T17:35:37;6.40;;;5.90;;
21245;SDS011;10781;50.928;4.440;2022-08-07T17:38:17;6.13;;;5.60;;
21245;SDS011;10781;50.928;4.440;2022-08-07T17:41:00;6.82;;;6.15;;
21245;SDS011;10781;50.928;4.440;2022-08-07T17:43:35;6.35;;;5.72;;
21245;SDS011;10781;50.928;4.440;2022-08-07T17:46:08;6.45;;;5.90;;
21245;SDS011;10781;50.928;4.440;2022-08-07T17:51:21;6.53;;;6.13;;
21245;SDS011;10781;50.928;4.440;2022-08-07T17:56:31;6.78;;;6.18;;
21245;SDS011;10781;50.928;4.440;2022-08-07T18:01:39;6.88;;;6.20;;